This is the latest recevied weather packets stored in our database for station/object WV8BRW. If no packets are shown the sender has not sent any weather packets the latest 1 day(s).
| Time | Temp. | Humidity | Pressure | Rain* | Wind** | Luminosity | Snow |
|---|---|---|---|---|---|---|---|
| 1777993892 | 23.33° C | 60% | 1010.3 hPa | 0 mm | 0.45 m/s, 353° | 426 W/m² | - |
| 1777993588 | 22.78° C | 58% | 1010.3 hPa | 0 mm | 0.89 m/s, 252° | 441 W/m² | - |
| 1777993285 | 22.78° C | 59% | 1010.3 hPa | 0 mm | 0.45 m/s, 281° | 457 W/m² | - |
| 1777992980 | 22.78° C | 60% | 1010.3 hPa | 0 mm | 0 m/s | 412 W/m² | - |
| 1777992679 | 22.22° C | 61% | 1010.5 hPa | 0 mm | 0 m/s | 390 W/m² | - |
| 1777992376 | 22.22° C | 60% | 1010.3 hPa | 0 mm | 0 m/s | 271 W/m² | - |
| 1777992074 | 22.22° C | 56% | 1010.2 hPa | 0 mm | 1.34 m/s, 124° | 290 W/m² | - |
| 1777991771 | 22.22° C | 57% | 1010.5 hPa | 0 mm | 0.45 m/s, 356° | 383 W/m² | - |
| 1777991468 | 21.67° C | 58% | 1010.4 hPa | 0 mm | 0 m/s | 265 W/m² | - |
| 1777991166 | 22.22° C | 58% | 1010.4 hPa | 0 mm | 1.34 m/s, 116° | 310 W/m² | - |
| 1777990863 | 22.22° C | 59% | 1010.7 hPa | 0 mm | 1.34 m/s, 284° | 276 W/m² | - |
| 1777990560 | 22.22° C | 60% | 1010.4 hPa | 0 mm | 0 m/s | 457 W/m² | - |
| 1777990257 | 21.67° C | 59% | 1010.4 hPa | 0 mm | 1.34 m/s, 135° | 373 W/m² | - |
| 1777989953 | 21.67° C | 59% | 1010.5 hPa | 0 mm | 0.89 m/s, 288° | 359 W/m² | - |
| 1777989650 | 21.67° C | 59% | 1010.4 hPa | 0 mm | 0.45 m/s, 312° | 319 W/m² | - |
| 1777989347 | 21.67° C | 59% | 1010.4 hPa | 0 mm | 0 m/s | 247 W/m² | - |
| 1777989043 | 21.67° C | 60% | 1010.4 hPa | 0 mm | 0 m/s | 327 W/m² | - |
| 1777988739 | 21.67° C | 62% | 1010.5 hPa | 0 mm | 0.45 m/s, 2° | 285 W/m² | - |
| 1777988436 | 21.67° C | 62% | 1010.3 hPa | 0 mm | 0 m/s | 305 W/m² | - |
| 1777988133 | 21.67° C | 62% | 1010.3 hPa | 0 mm | 0 m/s | 284 W/m² | - |
| 1777987833 | 21.11° C | 62% | 1010.5 hPa | 0 mm | 0 m/s | 320 W/m² | - |
| 1777987526 | 20.56° C | 65% | 1010.3 hPa | 0 mm | 0.89 m/s, 312° | 278 W/m² | - |
| 1777987224 | 20.56° C | 62% | 1010.2 hPa | 0 mm | 0 m/s | 269 W/m² | - |
| 1777986920 | 20.56° C | 65% | 1010.3 hPa | 0 mm | 0.45 m/s, 0° | 296 W/m² | - |
| 1777986618 | 20.56° C | 63% | 1010.3 hPa | 0 mm | 0.45 m/s, 359° | 338 W/m² | - |
* Rain latest hour (hover to see other rain measurements)
** Current wind speed in m/s (hover to see current wind gust speed)